Twin Springs, Nevada Weather observations

Data are for observation ending at time listed.
 Day   Time    Ave.   Ave.  Ave.  Vector   Max.   Stn.    Total    Solar   Ave.  
  of    of     Air    Rel.  Wind   Wind    Wind   Baro.  Precip.   Rad.    Soil  
Year   Day     Temp.  Hum.  Speed  Dir.    Gust   Pres.                    Temp. 
2014   (PST)    F      %     mph   deg.    mph     mb.     in.     W/m2     F   
------------------------------------------------------------------------------
 297    4:00   36.0    55    5.0   315      9.4    847     0.00       0    55.5
 297    5:00   36.4    55    6.5   345      9.7    848     0.00       0    54.7
 297    6:00   35.7    58    5.3   316      7.8    848     0.00       0    54.0
 297    7:00   34.8    59    5.1   310      7.9    848     0.00      69    53.4
 297    8:00   43.7    46    5.6   310      7.9    849     0.00     265    52.7
 297    9:00   53.4    35    5.1   299      8.0    849     0.00     453    52.6
 297   10:00   59.3    28    4.6   314      7.6    849     0.00     603    53.6
 297   11:00   67.5    23    2.6   294      7.2    848     0.00     697    55.3
 297   12:00   74.9    18    8.8   146     19.1    847     0.00     726    57.7
 297   13:00   76.6    17   14.3   135     22.3    846     0.00     686    60.8
 297   14:00   77.8    15   15.0   133     31.4    845     0.00     584    63.5
 297   15:00   78.2    14   16.4   129     26.9    845     0.00     434    65.4
 297   16:00   77.1    14   15.3   137     23.8    844     0.00     250    66.1
 297   17:00   72.8    15   12.2   145     20.3    844     0.00      51    66.1
 297   18:00   69.4    18   10.1   165     16.4    845     0.00       0    65.6
 297   19:00   62.9    24    6.4   126     12.0    845     0.00       0    64.9
 297   20:00   60.3    27    3.4   152      7.5    846     0.00       0    64.0
 297   21:00   61.7    27    4.9   133     11.0    846     0.00       0    63.0
 297   22:00   62.5    26    5.5    78     14.1    846     0.00       0    62.1
 297   23:00   60.5    29    5.8    82     15.9    846     0.00       0    61.3
 298    0:00   56.8    36    8.5   120     13.5    846     0.00       0    60.6
 298    1:00   56.3    38    8.2   124     14.7    846     0.00       0    60.0
 298    2:00   54.4    42    6.0   141     11.0    846     0.00       0    59.5
 298    3:00   54.9    41    6.1   116     12.1    845     0.00       0    59.0

Return to Twin Springs, Nevada graphs page.


Western Regional Climate Center,wrcc@dri.edu